createdAt,value
2022-10-27T00:02:28.896Z,6.47
2022-10-27T00:07:33.883Z,7.67
2022-10-27T00:12:37.264Z,7.30
2022-10-27T00:17:41.308Z,6.77
2022-10-27T00:22:46.355Z,9.97
2022-10-27T00:27:50.064Z,5.47
2022-10-27T00:32:55.035Z,8.93
2022-10-27T00:38:00.098Z,6.87
2022-10-27T00:43:03.628Z,21.13
2022-10-27T00:48:07.309Z,14.30
2022-10-27T00:53:12.714Z,9.37
2022-10-27T00:58:17.064Z,6.30
2022-10-27T01:03:22.362Z,10.07
2022-10-27T01:08:27.889Z,9.87
2022-10-27T01:13:32.878Z,9.03
2022-10-27T01:18:40.012Z,10.50
2022-10-27T01:23:49.828Z,7.90
2022-10-27T01:29:15.970Z,12.90
2022-10-27T01:34:23.798Z,10.57
2022-10-27T01:39:30.793Z,12.63
2022-10-27T01:44:35.758Z,11.17
2022-10-27T01:49:41.553Z,4.73
2022-10-27T01:54:45.425Z,7.63
2022-10-27T01:59:56.269Z,9.03
2022-10-27T02:05:06.501Z,6.73
2022-10-27T02:10:14.026Z,14.13
2022-10-27T02:15:22.988Z,5.77
2022-10-27T02:20:31.138Z,8.17
2022-10-27T02:25:37.496Z,6.90
2022-10-27T02:30:41.693Z,9.27
2022-10-27T02:35:48.666Z,7.00
2022-10-27T02:40:52.330Z,9.13
2022-10-27T02:45:56.122Z,5.97
2022-10-27T02:51:01.385Z,10.97
2022-10-27T02:56:05.240Z,6.63
2022-10-27T03:01:08.963Z,7.00
2022-10-27T03:06:14.228Z,5.27
2022-10-27T03:11:17.995Z,6.30
2022-10-27T03:16:21.625Z,8.53
2022-10-27T03:21:26.353Z,5.73
2022-10-27T03:26:29.976Z,5.77
2022-10-27T03:31:34.290Z,6.73
2022-10-27T03:36:39.924Z,4.53
2022-10-27T03:41:43.386Z,7.87
2022-10-27T03:46:46.933Z,6.27
2022-10-27T03:51:52.183Z,8.73
2022-10-27T03:56:55.661Z,6.87
2022-10-27T04:02:01.151Z,8.73
2022-10-27T04:07:08.722Z,12.67
2022-10-27T04:12:12.414Z,8.10
2022-10-27T04:17:16.914Z,9.37
2022-10-27T04:22:21.933Z,8.37
2022-10-27T04:27:25.916Z,16.30
2022-10-27T04:32:29.434Z,15.43
2022-10-27T04:37:34.469Z,15.47
2022-10-27T04:42:38.006Z,14.00
2022-10-27T04:47:41.550Z,17.27
2022-10-27T04:52:55.316Z,14.83
2022-10-27T04:57:58.918Z,16.20
2022-10-27T05:03:02.277Z,20.60
2022-10-27T05:08:07.106Z,26.83
2022-10-27T05:13:10.504Z,27.47
2022-10-27T05:18:14.168Z,32.60
2022-10-27T05:23:18.983Z,31.37
2022-10-27T05:28:25.277Z,34.60
2022-10-27T05:33:31.518Z,37.10
2022-10-27T05:38:38.269Z,32.37
2022-10-27T05:43:43.965Z,32.80
2022-10-27T05:48:47.516Z,39.90
2022-10-27T05:53:56.764Z,30.17
2022-10-27T05:59:00.422Z,16.43
2022-10-27T06:04:04.081Z,18.57
2022-10-27T06:09:09.219Z,13.00
2022-10-27T06:14:12.646Z,10.13
2022-10-27T06:19:16.125Z,15.53
2022-10-27T06:24:21.501Z,12.60
2022-10-27T06:29:24.855Z,14.90
2022-10-27T06:34:28.545Z,10.33
2022-10-27T06:39:33.553Z,15.00
2022-10-27T06:44:36.885Z,6.27
2022-10-27T06:49:40.629Z,7.73
2022-10-27T06:54:45.756Z,10.13
2022-10-27T06:59:49.286Z,11.07
2022-10-27T07:04:52.855Z,5.93
2022-10-27T07:09:57.836Z,7.00
2022-10-27T07:15:01.464Z,6.83
2022-10-27T07:20:05.207Z,12.00
2022-10-27T07:25:10.916Z,11.97
2022-10-27T07:30:15.595Z,9.53
2022-10-27T07:35:19.410Z,15.10
2022-10-27T07:40:28.745Z,12.10
2022-10-27T07:45:35.909Z,8.83
2022-10-27T07:50:39.980Z,12.10
2022-10-27T07:55:45.522Z,11.70
2022-10-27T08:00:49.618Z,7.43
2022-10-27T08:05:53.739Z,6.43
2022-10-27T08:11:01.129Z,12.00
2022-10-27T08:16:04.884Z,12.70
2022-10-27T08:21:08.625Z,11.00
2022-10-27T08:26:14.162Z,8.80
2022-10-27T08:31:17.720Z,13.00
2022-10-27T08:36:21.843Z,10.97
2022-10-27T08:41:41.130Z,12.03
2022-10-27T08:46:46.349Z,7.47
2022-10-27T08:51:51.738Z,8.43
2022-10-27T08:56:58.486Z,7.40
2022-10-27T09:02:08.492Z,6.40
2022-10-27T09:07:17.089Z,7.87
2022-10-27T09:12:27.056Z,6.27
2022-10-27T09:17:33.908Z,6.50
2022-10-27T09:22:40.096Z,11.23
2022-10-27T09:27:45.615Z,6.77
2022-10-27T09:32:50.874Z,6.93
2022-10-27T09:37:57.005Z,6.80
2022-10-27T09:43:03.880Z,5.80
2022-10-27T09:48:09.189Z,8.50
2022-10-27T09:53:28.038Z,6.67
2022-10-27T09:58:33.282Z,9.37
2022-10-27T10:03:37.220Z,6.57
2022-10-27T10:08:40.576Z,4.53
2022-10-27T10:13:57.825Z,11.17
2022-10-27T10:19:03.914Z,7.20
2022-10-27T10:24:07.666Z,4.13
2022-10-27T10:29:18.165Z,6.13
2022-10-27T10:34:30.435Z,9.27
2022-10-27T10:39:35.299Z,4.80
2022-10-27T10:44:40.120Z,4.70
2022-10-27T10:49:47.325Z,6.80
2022-10-27T10:54:50.979Z,8.00
2022-10-27T10:59:56.788Z,8.17
2022-10-27T11:05:10.879Z,9.00
2022-10-27T11:10:15.615Z,6.50
2022-10-27T11:15:22.201Z,9.70
2022-10-27T11:20:27.115Z,11.43
2022-10-27T11:25:33.526Z,6.37
2022-10-27T11:30:41.582Z,5.77
2022-10-27T11:35:50.271Z,9.68
2022-10-27T11:40:58.170Z,10.90
2022-10-27T11:46:07.022Z,3.75
2022-10-27T11:51:12.486Z,8.00
2022-10-27T11:56:29.675Z,6.63
2022-10-27T12:01:45.597Z,6.63
2022-10-27T12:06:52.185Z,7.97
2022-10-27T12:12:01.113Z,4.80
2022-10-27T12:17:09.341Z,5.75
2022-10-27T12:22:15.728Z,6.72
2022-10-27T12:27:22.748Z,12.30
2022-10-27T12:32:30.077Z,5.78
2022-10-27T12:37:37.777Z,3.92
2022-10-27T12:42:44.074Z,4.47
2022-10-27T12:47:54.169Z,5.70
2022-10-27T12:53:00.415Z,4.72
2022-10-27T12:58:05.191Z,5.00
2022-10-27T13:03:26.264Z,7.63
2022-10-27T13:09:03.441Z,6.13
2022-10-27T13:14:17.601Z,3.78
2022-10-27T13:19:36.458Z,2.90
2022-10-27T13:24:46.685Z,6.25
2022-10-27T13:29:52.624Z,3.67
2022-10-27T13:35:11.153Z,3.88
2022-10-27T13:40:33.761Z,5.20
2022-10-27T13:45:52.339Z,7.50
2022-10-27T13:50:57.503Z,5.17
2022-10-27T13:56:01.745Z,4.03
2022-10-27T14:01:29.647Z,6.40
2022-10-27T14:06:36.507Z,6.20
2022-10-27T14:11:47.161Z,5.97
2022-10-27T14:16:50.660Z,4.77
2022-10-27T14:21:57.079Z,4.23
2022-10-27T14:27:01.028Z,5.63
2022-10-27T14:32:14.307Z,4.33
2022-10-27T14:37:20.775Z,3.67
2022-10-27T14:42:28.246Z,6.07
2022-10-27T14:47:35.281Z,6.93
2022-10-27T14:52:43.895Z,6.30
2022-10-27T14:57:52.289Z,4.53
2022-10-27T15:02:56.989Z,8.87
2022-10-27T15:08:03.658Z,4.00
2022-10-27T15:13:08.971Z,8.67
2022-10-27T15:23:23.238Z,3.63
2022-10-27T15:28:28.436Z,5.93
2022-10-27T15:33:34.081Z,4.17
2022-10-27T15:38:38.921Z,2.97
2022-10-27T15:43:42.377Z,4.97
2022-10-27T15:48:46.441Z,7.33
2022-10-27T15:53:53.086Z,8.63
2022-10-27T15:59:15.036Z,7.83
2022-10-27T16:04:39.193Z,5.17
2022-10-27T16:09:45.210Z,8.67
2022-10-27T16:14:53.027Z,5.03
2022-10-27T16:19:59.072Z,5.00
2022-10-27T16:25:04.095Z,5.17
2022-10-27T16:30:07.925Z,4.37
2022-10-27T16:35:13.721Z,5.13
2022-10-27T16:40:19.280Z,9.57
2022-10-27T16:45:22.512Z,5.53
2022-10-27T16:50:25.876Z,8.63
2022-10-27T16:55:30.751Z,9.90
2022-10-27T17:00:34.410Z,9.47
2022-10-27T17:05:38.022Z,15.60
2022-10-27T17:10:42.924Z,8.43
2022-10-27T17:15:46.265Z,6.33
2022-10-27T17:20:55.987Z,5.87
2022-10-27T17:26:04.834Z,8.07
2022-10-27T17:31:09.263Z,6.77
2022-10-27T17:36:14.181Z,7.40
2022-10-27T17:41:19.169Z,4.47
2022-10-27T17:46:23.195Z,7.20
2022-10-27T17:51:27.471Z,5.90
2022-10-27T17:56:33.897Z,5.00
2022-10-27T18:01:39.497Z,8.23
2022-10-27T18:06:43.394Z,5.77
2022-10-27T18:11:48.231Z,6.67
2022-10-27T18:16:52.031Z,6.23
2022-10-27T18:21:55.525Z,4.23
2022-10-27T18:27:00.367Z,7.07
2022-10-27T18:32:03.896Z,6.13
2022-10-27T18:37:07.396Z,4.53
2022-10-27T18:42:12.069Z,7.70
2022-10-27T18:47:15.552Z,7.60
2022-10-27T18:52:19.089Z,4.27
2022-10-27T18:57:24.012Z,5.07
2022-10-27T19:02:30.072Z,7.63
2022-10-27T19:07:33.587Z,4.20
2022-10-27T19:12:38.461Z,4.40
2022-10-27T19:17:42.925Z,8.37
2022-10-27T19:22:46.544Z,6.40
2022-10-27T19:27:51.436Z,6.10
2022-10-27T19:32:55.071Z,7.23
2022-10-27T19:37:58.643Z,5.37
2022-10-27T19:43:03.496Z,8.07
2022-10-27T19:48:07.671Z,4.73
2022-10-27T19:53:11.223Z,7.20
2022-10-27T19:58:16.279Z,8.47
2022-10-27T20:03:19.777Z,7.40
2022-10-27T20:08:23.314Z,4.27
2022-10-27T20:13:28.199Z,11.50
2022-10-27T20:18:31.787Z,6.30
2022-10-27T20:23:35.248Z,7.23
2022-10-27T20:28:40.217Z,6.33
2022-10-27T20:33:43.590Z,5.93
2022-10-27T20:38:47.096Z,6.13
2022-10-27T20:43:55.444Z,5.23
2022-10-27T20:49:00.118Z,7.73
2022-10-27T20:54:04.136Z,11.17
2022-10-27T20:59:09.082Z,6.03
2022-10-27T21:04:13.521Z,6.83
2022-10-27T21:09:18.138Z,7.17
2022-10-27T21:14:23.258Z,22.50
2022-10-27T21:19:26.592Z,5.93
2022-10-27T21:24:30.006Z,6.77
2022-10-27T21:29:34.855Z,6.40
2022-10-27T21:34:38.256Z,7.00
2022-10-27T21:39:41.692Z,7.60
2022-10-27T21:44:47.068Z,4.87
2022-10-27T21:49:51.649Z,8.63
2022-10-27T21:54:55.068Z,7.37
2022-10-27T21:59:59.859Z,6.17
2022-10-27T22:05:03.166Z,5.97
2022-10-27T22:10:06.873Z,7.70
2022-10-27T22:15:12.058Z,6.50
2022-10-27T22:20:15.416Z,5.50
2022-10-27T22:25:18.774Z,6.67
2022-10-27T22:30:23.414Z,7.70
2022-10-27T22:35:26.902Z,5.00
2022-10-27T22:40:30.291Z,10.27
2022-10-27T22:45:35.035Z,8.63
2022-10-27T22:50:38.402Z,7.50
2022-10-27T22:55:41.832Z,8.17
2022-10-27T23:00:46.617Z,8.40
2022-10-27T23:05:49.956Z,9.00
2022-10-27T23:10:55.729Z,7.23
2022-10-27T23:16:01.333Z,9.27
2022-10-27T23:21:05.737Z,10.60
2022-10-27T23:26:15.392Z,11.13
2022-10-27T23:31:20.523Z,11.47
2022-10-27T23:36:24.052Z,6.70
2022-10-27T23:41:27.699Z,5.47
2022-10-27T23:46:32.678Z,6.87
2022-10-27T23:51:36.043Z,10.07
2022-10-27T23:56:39.753Z,8.93
